Terminal Aerodrome Forecast
Issued by NWS Tulsa, OK

Home | Current Version | Previous Version | Text Only | Print | Product List | Glossary On
Versions: 1 2 3 4 5 6 7 8 9 10 11 12 13
000
FTUS44 KTSA 272000 AAB
TAFTUL
TAF AMD
KTUL 272039Z 2721/2818 33006KT P6SM -SN FEW008 SCT030 OVC090
     FM272200 35010KT P6SM SCT030 BKN100
     FM280000 35006KT P6SM BKN100 BKN250=

USA.gov is the U.S. government's official web portal to all federal, state and local government web resources and services.